Time;durP1;ratioP1;P1;durP2;ratioP2;P2;SDS_P1;SDS_P2;PMS_P1;PMS_P2;Temp;Humidity;BMP_temperature;BMP_pressure;BME280_temperature;BME280_humidity;BME280_pressure;Samples;Min_cycle;Max_cycle;Signal;HPM_P1;HPM_P2
2022/01/27 00:00:38;;;;;;;5.07;2.50;;;;;;;-0.19;76.72;95339.78;5057755;28;20555;-75
2022/01/27 00:03:21;;;;;;;6.82;3.28;;;;;;;-0.11;76.89;95348.16;5066298;28;20716;-76
2022/01/27 00:05:52;;;;;;;6.32;2.65;;;;;;;-0.20;77.09;95336.31;5061489;28;20653;-77
2022/01/27 00:08:24;;;;;;;4.47;2.17;;;;;;;-0.13;76.89;95350.25;5074960;28;20658;-76
2022/01/27 00:10:57;;;;;;;3.28;2.15;;;;;;;-0.11;77.06;95342.84;5085311;28;20199;-76
2022/01/27 00:13:29;;;;;;;4.40;2.47;;;;;;;-0.12;77.30;95338.56;5073441;28;20330;-76
2022/01/27 00:16:15;;;;;;;4.72;2.78;;;;;;;-0.25;77.50;95338.91;5084415;28;20245;-77
2022/01/27 00:18:43;;;;;;;2.97;1.30;;;;;;;-0.24;77.28;95332.53;5059551;28;20230;-75
2022/01/27 00:21:10;;;;;;;5.00;2.28;;;;;;;-0.32;78.22;95332.13;5074497;28;20207;-74
2022/01/27 00:23:37;;;;;;;3.33;1.85;;;;;;;-0.25;78.17;95336.22;5073836;28;20306;-76
2022/01/27 00:26:05;;;;;;;4.75;2.33;;;;;;;-0.34;78.21;95327.03;5073920;28;20284;-76
2022/01/27 00:28:32;;;;;;;4.13;1.98;;;;;;;-0.34;77.96;95335.03;5073490;28;20222;-76
2022/01/27 00:30:59;;;;;;;3.75;1.88;;;;;;;-0.33;78.10;95327.84;5073720;28;20672;-75
2022/01/27 00:33:29;;;;;;;4.75;2.10;;;;;;;-0.32;78.56;95335.59;5073816;28;20235;-75
2022/01/27 00:35:56;;;;;;;1.88;1.52;;;;;;;-0.32;77.55;95326.81;5073513;28;20229;-76
2022/01/27 00:38:22;;;;;;;4.40;2.53;;;;;;;-0.38;78.30;95333.91;5073273;28;20709;-75
2022/01/27 00:40:49;;;;;;;9.60;3.42;;;;;;;-0.38;77.94;95325.91;5073960;28;20198;-74
2022/01/27 00:43:18;;;;;;;4.90;2.50;;;;;;;-0.27;77.36;95326.91;5073591;28;20215;-76
2022/01/27 00:45:45;;;;;;;4.50;2.40;;;;;;;-0.23;77.34;95326.16;5086678;28;20704;-75
2022/01/27 00:48:14;;;;;;;2.30;1.98;;;;;;;-0.24;76.78;95321.88;5073410;28;20566;-76
2022/01/27 00:50:41;;;;;;;3.70;2.00;;;;;;;-0.34;77.23;95316.41;5073093;28;20261;-76
2022/01/27 00:53:23;;;;;;;5.57;3.13;;;;;;;-0.31;77.67;95337.22;5073263;28;20306;-76
2022/01/27 00:55:50;;;;;;;2.45;1.60;;;;;;;-0.22;77.06;95330.44;5073076;28;20202;-76
2022/01/27 00:58:34;;;;;;;3.60;2.15;;;;;;;-0.28;77.19;95326.09;5073313;28;20203;-76
2022/01/27 01:01:05;;;;;;;4.03;2.08;;;;;;;-0.21;77.27;95332.03;5069585;28;20229;-76
2022/01/27 01:03:37;;;;;;;2.55;1.52;;;;;;;-0.25;77.49;95325.59;5077724;28;20209;-77
2022/01/27 01:14:39;;;;;;;4.80;2.05;;;;;;;-0.17;76.53;95317.22;5072916;28;20219;-75
2022/01/27 01:17:18;;;;;;;2.50;1.73;;;;;;;-0.26;76.37;95313.31;5059535;28;20214;-74
2022/01/27 01:19:59;;;;;;;4.20;2.40;;;;;;;-0.26;77.26;95299.22;5072753;28;20331;-76
2022/01/27 01:30:53;;;;;;;2.50;1.52;;;;;;;-0.23;76.52;95317.34;5072788;28;20241;-76
2022/01/27 01:33:25;;;;;;;4.65;2.78;;;;;;;-0.31;76.58;95310.59;5059568;28;20238;-75
2022/01/27 01:36:02;;;;;;;4.50;1.88;;;;;;;-0.30;76.98;95306.09;5072060;28;20215;-75
2022/01/27 01:38:30;;;;;;;4.18;2.13;;;;;;;-0.29;77.09;95313.84;5072448;28;20195;-75
2022/01/27 01:40:58;;;;;;;7.45;1.77;;;;;;;-0.27;76.14;95313.59;5072834;28;20630;-74
2022/01/27 01:43:25;;;;;;;4.57;2.03;;;;;;;-0.33;76.70;95298.59;5072710;28;20234;-74
2022/01/27 01:45:54;;;;;;;3.10;1.55;;;;;;;-0.27;76.63;95311.72;5072132;28;20661;-76
2022/01/27 01:48:21;;;;;;;2.63;2.28;;;;;;;-0.25;76.51;95306.94;5071945;28;20647;-75
2022/01/27 01:50:48;;;;;;;6.47;1.95;;;;;;;-0.33;76.32;95291.41;5071753;28;20581;-74
2022/01/27 01:53:15;;;;;;;4.55;2.50;;;;;;;-0.22;76.38;95293.16;5072254;28;20234;-75
2022/01/27 01:55:42;;;;;;;3.63;2.10;;;;;;;-0.23;75.86;95286.22;5072205;28;20252;-76
2022/01/27 01:58:10;;;;;;;3.00;1.90;;;;;;;-0.22;76.13;95292.34;5071839;28;20210;-76
2022/01/27 02:00:37;;;;;;;4.32;1.80;;;;;;;-0.31;76.28;95278.66;5071392;28;20651;-75
2022/01/27 02:03:05;;;;;;;4.95;2.65;;;;;;;-0.21;76.39;95278.81;5071445;28;20697;-75
2022/01/27 02:05:39;;;;;;;5.40;2.35;;;;;;;-0.22;76.45;95277.19;5071828;28;20681;-75
2022/01/27 02:19:28;;;;;;;2.53;1.58;;;;;;;-0.25;76.98;95261.69;5071138;28;20750;-76
2022/01/27 02:21:58;;;;;;;1.75;1.20;;;;;;;-0.28;76.45;95262.22;5057920;28;20563;-74
2022/01/27 02:24:28;;;;;;;2.45;1.27;;;;;;;-0.42;77.11;95252.94;5071506;28;20669;-75
2022/01/27 02:26:55;;;;;;;2.72;1.50;;;;;;;-0.32;76.84;95265.59;5083389;28;20226;-76
2022/01/27 02:29:23;;;;;;;1.50;1.02;;;;;;;-0.33;76.86;95266.66;5070833;28;20199;-75
2022/01/27 02:31:52;;;;;;;4.53;2.17;;;;;;;-0.28;77.27;95264.88;5071423;28;20222;-75
2022/01/27 02:34:19;;;;;;;5.60;2.30;;;;;;;-0.24;76.37;95268.63;5070633;28;20782;-76
2022/01/27 02:36:46;;;;;;;8.68;1.38;;;;;;;-0.31;76.75;95272.53;5071209;28;20223;-75
2022/01/27 02:39:15;;;;;;;4.03;1.80;;;;;;;-0.36;77.72;95270.59;5071329;28;20210;-76
2022/01/27 02:41:46;;;;;;;4.03;2.47;;;;;;;-0.35;77.54;95266.88;5071497;28;20230;-75
2022/01/27 02:44:21;;;;;;;2.40;1.40;;;;;;;-0.41;77.94;95262.56;5071519;28;20199;-75
2022/01/27 02:46:51;;;;;;;2.58;1.00;;;;;;;-0.37;78.21;95274.31;5070051;28;20190;-76
2022/01/27 02:49:18;;;;;;;3.17;1.85;;;;;;;-0.34;78.13;95268.50;5071403;28;20202;-76
2022/01/27 02:51:45;;;;;;;1.90;1.25;;;;;;;-0.31;77.89;95268.00;5070916;28;20320;-75
2022/01/27 02:54:12;;;;;;;3.00;1.60;;;;;;;-0.24;77.47;95268.63;5070573;28;20223;-76
2022/01/27 02:56:45;;;;;;;3.92;1.30;;;;;;;-0.18;76.87;95274.84;5071755;28;20207;-76
2022/01/27 02:59:12;;;;;;;4.03;1.58;;;;;;;-0.22;77.19;95271.88;5071134;28;20217;-76
2022/01/27 03:01:39;;;;;;;4.03;1.60;;;;;;;-0.17;76.55;95274.63;5071473;28;20203;-76
2022/01/27 03:04:06;;;;;;;1.60;1.08;;;;;;;-0.14;76.73;95274.13;5070916;28;20209;-77
2022/01/27 03:06:33;;;;;;;1.75;0.93;;;;;;;-0.15;76.60;95267.19;5071346;28;20203;-76
2022/01/27 03:09:00;;;;;;;1.83;1.30;;;;;;;-0.08;77.12;95282.97;5071211;28;20219;-76
2022/01/27 03:11:44;;;;;;;1.75;0.98;;;;;;;-0.20;77.44;95272.44;5070998;28;20206;-75
2022/01/27 03:14:12;;;;;;;1.50;1.17;;;;;;;-0.14;77.04;95273.31;5070527;28;20234;-74
2022/01/27 03:16:39;;;;;;;2.58;1.23;;;;;;;-0.11;77.02;95270.97;5071054;28;20210;-76
2022/01/27 03:19:06;;;;;;;1.73;1.13;;;;;;;-0.14;76.81;95268.81;5070865;28;20724;-75
2022/01/27 03:21:33;;;;;;;2.10;1.25;;;;;;;-0.15;77.39;95272.53;5070843;28;20199;-74
2022/01/27 03:24:00;;;;;;;1.88;1.25;;;;;;;-0.15;77.27;95274.38;5070861;28;20229;-74
2022/01/27 03:26:28;;;;;;;1.70;0.98;;;;;;;-0.10;76.96;95275.22;5084522;28;20230;-75
2022/01/27 03:28:57;;;;;;;2.47;1.50;;;;;;;-0.13;77.22;95270.38;5070893;28;20210;-74
2022/01/27 03:31:24;;;;;;;1.02;0.90;;;;;;;-0.07;76.95;95266.75;5073312;28;20231;-77
2022/01/27 03:33:51;;;;;;;1.00;0.82;;;;;;;-0.10;76.63;95285.06;5076157;28;20592;-75
2022/01/27 03:36:18;;;;;;;1.65;1.00;;;;;;;-0.15;77.61;95277.84;5074702;28;20211;-76
2022/01/27 03:38:45;;;;;;;1.65;1.40;;;;;;;-0.14;77.44;95274.13;5075037;28;20199;-76
2022/01/27 03:41:18;;;;;;;1.80;1.15;;;;;;;-0.09;77.39;95281.38;5074689;28;20226;-76
2022/01/27 03:43:45;;;;;;;3.25;1.55;;;;;;;-0.16;77.19;95273.56;5074960;28;20577;-76
2022/01/27 03:46:14;;;;;;;0.88;0.85;;;;;;;-0.15;77.27;95271.72;5074466;28;20226;-76
2022/01/27 03:48:41;;;;;;;2.35;1.30;;;;;;;-0.13;77.37;95278.38;5074516;28;20203;-75
2022/01/27 03:51:08;;;;;;;1.45;1.05;;;;;;;-0.07;76.54;95285.41;5074206;28;20207;-76
2022/01/27 03:53:35;;;;;;;1.55;1.13;;;;;;;-0.16;77.28;95276.22;5074552;28;20199;-76
2022/01/27 03:56:02;;;;;;;1.48;0.82;;;;;;;-0.10;77.39;95285.88;5074058;28;20261;-74
2022/01/27 03:58:29;;;;;;;2.17;1.08;;;;;;;-0.13;77.40;95285.56;5073920;28;20206;-75
2022/01/27 04:00:56;;;;;;;1.30;1.10;;;;;;;-0.21;77.87;95286.78;5054466;28;20203;-76
2022/01/27 04:03:26;;;;;;;1.73;1.60;;;;;;;-0.20;77.85;95290.25;5069332;28;20213;-75
2022/01/27 04:05:55;;;;;;;3.20;1.52;;;;;;;-0.12;77.06;95287.97;5074265;28;20188;-74
2022/01/27 04:08:23;;;;;;;1.55;1.20;;;;;;;-0.17;77.63;95290.59;5074379;28;20309;-75
2022/01/27 04:10:50;;;;;;;2.53;1.75;;;;;;;-0.19;77.74;95295.34;5073887;28;20658;-76
2022/01/27 04:13:17;;;;;;;1.90;1.38;;;;;;;-0.17;78.02;95295.91;5076928;28;20230;-76
2022/01/27 04:15:45;;;;;;;3.65;2.13;;;;;;;-0.14;77.74;95300.75;5080834;28;20291;-75
2022/01/27 04:18:13;;;;;;;3.80;2.03;;;;;;;-0.20;77.63;95296.38;5078394;28;20292;-77
2022/01/27 04:20:42;;;;;;;2.17;1.52;;;;;;;-0.23;78.56;95296.88;5083647;28;20199;-75
2022/01/27 04:23:10;;;;;;;2.10;0.80;;;;;;;-0.28;78.87;95296.81;5078875;28;20252;-75
2022/01/27 04:25:38;;;;;;;2.95;2.33;;;;;;;-0.27;78.74;95295.75;5077032;28;20664;-75
2022/01/27 04:28:08;;;;;;;1.63;0.82;;;;;;;-0.24;78.74;95295.25;5074080;28;20203;-75
2022/01/27 04:30:35;;;;;;;2.95;1.70;;;;;;;-0.21;79.29;95296.63;5073409;28;20709;-76
2022/01/27 04:33:04;;;;;;;3.45;1.65;;;;;;;-0.21;78.63;95294.78;5073479;28;20223;-75
2022/01/27 04:35:35;;;;;;;2.72;1.63;;;;;;;-0.24;78.87;95299.78;5085702;28;20700;-75
2022/01/27 04:38:17;;;;;;;3.63;1.60;;;;;;;-0.26;79.00;95297.34;5074099;28;20192;-75
2022/01/27 04:40:53;;;;;;;1.58;1.25;;;;;;;-0.21;78.50;95308.09;5073219;28;20628;-75
2022/01/27 04:43:27;;;;;;;2.38;1.17;;;;;;;-0.30;79.03;95295.44;5073760;28;20195;-76
2022/01/27 04:46:02;;;;;;;3.05;2.05;;;;;;;-0.23;78.93;95296.88;5072749;28;20267;-77
2022/01/27 04:48:35;;;;;;;3.10;1.83;;;;;;;-0.28;79.12;95307.47;5073648;28;20203;-75
2022/01/27 04:51:06;;;;;;;2.13;1.42;;;;;;;-0.24;79.58;95305.91;5086602;28;20203;-75
2022/01/27 04:53:39;;;;;;;2.35;1.88;;;;;;;-0.22;79.00;95303.81;5073065;28;20570;-75
2022/01/27 04:56:10;;;;;;;4.78;2.25;;;;;;;-0.23;79.16;95307.53;5072712;28;20343;-76
2022/01/27 04:58:37;;;;;;;4.10;2.90;;;;;;;-0.25;79.22;95304.28;5072048;28;20895;-76
2022/01/27 05:01:05;;;;;;;4.38;2.38;;;;;;;-0.18;78.93;95310.28;5073148;28;20662;-74
2022/01/27 05:03:39;;;;;;;4.55;1.80;;;;;;;-0.18;78.95;95315.59;5072973;28;20650;-77
2022/01/27 05:06:06;;;;;;;3.03;1.85;;;;;;;-0.22;79.54;95334.94;5073344;28;20231;-76
2022/01/27 05:08:34;;;;;;;3.72;1.65;;;;;;;-0.23;79.47;95328.81;5073271;28;20223;-78
2022/01/27 05:11:06;;;;;;;2.72;1.58;;;;;;;-0.18;80.21;95326.25;5073307;28;20227;-76
2022/01/27 05:13:40;;;;;;;3.30;2.25;;;;;;;-0.16;79.86;95329.47;5073169;28;20230;-75
2022/01/27 05:16:11;;;;;;;1.98;1.30;;;;;;;-0.19;80.02;95327.28;5073051;28;20219;-75
2022/01/27 05:18:37;;;;;;;4.60;2.13;;;;;;;-0.22;80.21;95332.28;5072655;28;20239;-76
2022/01/27 05:21:04;;;;;;;4.45;2.42;;;;;;;-0.21;80.31;95337.38;5073083;28;20203;-76
2022/01/27 05:23:31;;;;;;;4.72;2.88;;;;;;;-0.18;79.88;95342.22;5072755;28;20219;-76
2022/01/27 05:25:59;;;;;;;3.63;2.08;;;;;;;-0.08;79.52;95346.88;5072316;28;20491;-75
2022/01/27 05:28:26;;;;;;;5.00;2.20;;;;;;;-0.11;79.21;95344.69;5059216;28;20921;-76
2022/01/27 05:30:53;;;;;;;1.95;1.48;;;;;;;-0.16;79.46;95340.13;5072919;28;20223;-75
2022/01/27 05:33:20;;;;;;;3.85;2.30;;;;;;;-0.14;79.68;95338.03;5085270;28;20222;-76
2022/01/27 05:35:47;;;;;;;2.22;1.58;;;;;;;-0.17;80.21;95338.50;5071284;28;20726;-77
2022/01/27 05:38:17;;;;;;;1.73;1.38;;;;;;;-0.12;79.77;95346.56;5072573;28;20721;-77
2022/01/27 05:40:44;;;;;;;2.53;2.17;;;;;;;-0.21;80.31;95348.03;5072712;28;20203;-77
2022/01/27 05:43:13;;;;;;;3.08;2.13;;;;;;;-0.28;80.37;95352.72;5072540;28;20605;-76
2022/01/27 05:45:41;;;;;;;3.08;2.20;;;;;;;-0.26;80.33;95344.47;5072324;28;20555;-75
2022/01/27 05:48:08;;;;;;;5.07;1.48;;;;;;;-0.19;80.42;95351.25;5072767;28;20203;-76
2022/01/27 05:50:35;;;;;;;4.05;2.55;;;;;;;-0.16;80.12;95356.09;5072302;28;20246;-78
2022/01/27 05:53:03;;;;;;;3.10;2.30;;;;;;;-0.11;80.39;95350.84;5071067;28;20198;-75
2022/01/27 05:55:30;;;;;;;5.07;2.47;;;;;;;-0.03;80.80;95349.63;5070737;28;20701;-76
2022/01/27 05:57:57;;;;;;;4.70;3.42;;;;;;;-0.01;80.23;95353.66;5070674;28;20191;-78
2022/01/27 06:00:25;;;;;;;6.18;3.78;;;;;;;0.00;80.97;95360.59;5068218;28;20245;-77
2022/01/27 06:02:53;;;;;;;7.40;4.90;;;;;;;-0.11;80.86;95358.00;5070952;28;20199;-76
2022/01/27 06:05:20;;;;;;;5.63;3.35;;;;;;;-0.18;80.72;95363.50;5071168;28;20236;-76
2022/01/27 06:07:47;;;;;;;2.90;1.83;;;;;;;-0.20;80.71;95365.59;5072052;28;20202;-77
2022/01/27 06:10:13;;;;;;;4.45;2.47;;;;;;;-0.17;81.28;95364.31;5069344;28;20199;-78
2022/01/27 06:12:49;;;;;;;4.18;2.58;;;;;;;-0.06;80.51;95355.44;5070775;28;20241;-77
2022/01/27 06:15:16;;;;;;;4.25;2.70;;;;;;;-0.12;80.50;95367.03;5070569;28;20860;-75
2022/01/27 06:17:44;;;;;;;4.18;2.70;;;;;;;-0.15;80.94;95363.03;5070951;28;20223;-73
2022/01/27 06:20:12;;;;;;;5.07;2.53;;;;;;;-0.11;80.75;95368.66;5062762;28;20243;-76
2022/01/27 06:22:39;;;;;;;3.95;2.50;;;;;;;-0.11;80.95;95377.47;5072070;28;20202;-76
2022/01/27 06:25:07;;;;;;;4.57;2.78;;;;;;;-0.11;81.35;95369.47;5070944;28;20215;-76
2022/01/27 06:27:34;;;;;;;3.22;1.90;;;;;;;-0.05;80.74;95373.84;5069305;28;20234;-78
2022/01/27 06:30:01;;;;;;;4.97;2.47;;;;;;;-0.04;81.32;95378.13;5070701;28;20218;-78
2022/01/27 06:32:28;;;;;;;9.07;2.72;;;;;;;0.08;80.68;95379.88;5072735;28;20202;-78
2022/01/27 06:34:56;;;;;;;5.03;2.53;;;;;;;0.06;80.43;95379.31;5070007;28;20240;-78
2022/01/27 06:37:23;;;;;;;13.68;3.25;;;;;;;0.04;80.87;95384.06;5067788;28;20223;-80
2022/01/27 06:39:52;;;;;;;5.80;3.22;;;;;;;-0.06;80.63;95382.88;5070806;28;20210;-73
2022/01/27 06:42:19;;;;;;;3.20;2.17;;;;;;;-0.03;80.60;95379.72;5067762;28;20223;-79
2022/01/27 06:44:47;;;;;;;4.60;2.97;;;;;;;-0.04;80.85;95382.63;5070324;28;20256;-76
2022/01/27 06:47:14;;;;;;;4.88;2.83;;;;;;;0.09;80.61;95389.50;5070534;28;20195;-78
2022/01/27 06:49:41;;;;;;;4.55;2.65;;;;;;;0.08;80.29;95377.22;5071017;28;20191;-76
2022/01/27 06:52:09;;;;;;;7.88;3.97;;;;;;;0.19;80.52;95376.31;5070433;28;20207;-76
2022/01/27 06:54:36;;;;;;;10.32;4.55;;;;;;;0.23;79.97;95375.59;5070251;28;20210;-76
2022/01/27 06:57:05;;;;;;;5.18;3.20;;;;;;;0.35;79.25;95372.81;5077144;28;20302;-78
2022/01/27 06:59:32;;;;;;;5.13;3.17;;;;;;;0.20;79.33;95375.25;5070414;28;20199;-77
2022/01/27 07:01:59;;;;;;;5.78;3.25;;;;;;;0.25;79.78;95378.00;5068244;28;20218;-77
2022/01/27 07:04:26;;;;;;;6.07;3.35;;;;;;;0.18;80.14;95380.84;5070506;28;20600;-79
2022/01/27 07:06:53;;;;;;;5.00;3.20;;;;;;;0.22;79.77;95379.31;5070429;28;20218;-80
2022/01/27 07:09:21;;;;;;;3.35;2.50;;;;;;;0.33;79.46;95383.72;5062210;28;21054;-75
2022/01/27 07:11:48;;;;;;;5.30;3.20;;;;;;;0.15;79.77;95383.97;5071424;28;20575;-75
2022/01/27 07:14:15;;;;;;;3.08;1.98;;;;;;;0.21;79.27;95384.88;5072875;28;20203;-76
2022/01/27 07:16:42;;;;;;;6.38;2.60;;;;;;;0.09;80.34;95389.50;5070397;28;20559;-75
2022/01/27 07:19:09;;;;;;;9.20;4.00;;;;;;;0.16;80.80;95396.25;5069918;28;20292;-78
2022/01/27 07:21:36;;;;;;;2.60;1.52;;;;;;;0.16;79.67;95400.78;5070211;28;20195;-77
2022/01/27 07:24:04;;;;;;;4.30;2.92;;;;;;;0.14;79.98;95392.22;5070209;28;20227;-78
2022/01/27 07:26:32;;;;;;;3.70;2.75;;;;;;;0.19;79.50;95394.97;5070140;28;20323;-77
2022/01/27 07:28:59;;;;;;;7.93;4.10;;;;;;;0.25;79.83;95402.81;5070602;28;20199;-73
2022/01/27 07:31:26;;;;;;;13.30;6.18;;;;;;;0.30;79.61;95392.19;5069696;28;20603;-77
2022/01/27 07:33:54;;;;;;;16.10;6.85;;;;;;;0.40;79.45;95391.56;5070241;28;20214;-77
2022/01/27 07:36:21;;;;;;;9.80;3.67;;;;;;;0.43;78.62;95387.56;5070198;28;20222;-76
2022/01/27 07:38:49;;;;;;;11.57;5.78;;;;;;;0.39;79.12;95395.28;5070054;28;20626;-78
2022/01/27 07:41:17;;;;;;;20.48;8.95;;;;;;;0.41;79.14;95398.47;5070012;28;20594;-78
2022/01/27 07:43:46;;;;;;;13.65;6.03;;;;;;;0.54;78.60;95392.81;5067932;28;20553;-77
2022/01/27 07:46:13;;;;;;;5.35;3.33;;;;;;;0.37;79.19;95392.03;5070054;28;20206;-77
2022/01/27 07:48:40;;;;;;;4.10;2.13;;;;;;;0.44;78.77;95392.66;5069639;28;20214;-75
2022/01/27 07:51:07;;;;;;;4.03;3.17;;;;;;;0.38;78.92;95392.84;5072259;28;20202;-77
2022/01/27 07:53:34;;;;;;;3.70;2.85;;;;;;;0.50;78.68;95397.03;5070044;28;20191;-77
2022/01/27 07:56:02;;;;;;;5.25;2.65;;;;;;;0.50;78.34;95385.56;5069911;28;20222;-77
2022/01/27 07:58:29;;;;;;;5.00;3.10;;;;;;;0.62;78.23;95405.72;5069746;28;20773;-78
2022/01/27 08:00:58;;;;;;;6.85;3.38;;;;;;;0.57;78.75;95402.97;5069831;28;20749;-79
2022/01/27 08:03:25;;;;;;;6.20;3.60;;;;;;;0.64;79.19;95397.47;5064479;28;20238;-78
2022/01/27 08:05:52;;;;;;;5.35;3.22;;;;;;;0.57;78.42;95399.50;5069828;28;20202;-80
2022/01/27 08:08:19;;;;;;;6.63;3.63;;;;;;;0.50;79.78;95401.56;5069630;28;20199;-74
2022/01/27 08:10:48;;;;;;;7.82;3.42;;;;;;;0.53;79.11;95399.22;5070811;28;20207;-77
2022/01/27 08:13:15;;;;;;;6.60;3.53;;;;;;;0.65;79.04;95405.22;5070586;28;20543;-78
2022/01/27 08:15:42;;;;;;;3.90;2.40;;;;;;;0.80;79.12;95411.81;5070104;28;20235;-79
2022/01/27 08:18:10;;;;;;;4.65;2.50;;;;;;;0.83;78.22;95397.97;5069825;28;20227;-77
2022/01/27 08:20:37;;;;;;;7.30;4.13;;;;;;;0.85;79.08;95414.53;5071527;28;20273;-76
2022/01/27 08:23:05;;;;;;;7.90;4.20;;;;;;;0.94;78.38;95418.41;5073836;28;20268;-76
2022/01/27 08:25:33;;;;;;;6.13;3.15;;;;;;;0.79;79.11;95404.88;5073791;28;20227;-76
2022/01/27 08:28:04;;;;;;;8.48;4.70;;;;;;;0.93;78.67;95416.78;5073586;28;20198;-78
2022/01/27 08:30:38;;;;;;;7.55;4.10;;;;;;;0.97;78.34;95417.88;5073356;28;20284;-77
2022/01/27 08:33:08;;;;;;;5.65;3.42;;;;;;;0.98;78.75;95419.50;5073486;28;20588;-76
2022/01/27 08:35:37;;;;;;;8.10;4.78;;;;;;;1.20;77.69;95406.97;5072753;28;20571;-77
2022/01/27 08:38:04;;;;;;;7.03;3.83;;;;;;;1.04;78.12;95413.19;5073148;28;20295;-75
2022/01/27 08:40:30;;;;;;;7.75;4.18;;;;;;;1.04;77.91;95414.00;5073194;28;20207;-75
2022/01/27 08:42:58;;;;;;;8.88;4.40;;;;;;;1.19;76.98;95418.72;5073565;28;20302;-75
2022/01/27 08:45:25;;;;;;;7.57;4.75;;;;;;;1.20;77.42;95417.66;5073125;28;20210;-76
2022/01/27 08:47:54;;;;;;;8.35;4.18;;;;;;;1.09;78.09;95425.78;5073201;28;20748;-77
2022/01/27 08:50:23;;;;;;;12.70;5.93;;;;;;;0.98;77.50;95422.16;5072808;28;20207;-77
2022/01/27 08:52:51;;;;;;;5.35;3.55;;;;;;;0.98;77.93;95420.31;5080124;28;20313;-80
2022/01/27 08:55:20;;;;;;;5.88;3.25;;;;;;;1.15;77.36;95422.91;5077508;28;20199;-77
2022/01/27 08:57:47;;;;;;;8.70;3.97;;;;;;;0.87;78.44;95429.25;5072361;28;20227;-78
2022/01/27 09:00:15;;;;;;;9.13;5.28;;;;;;;0.70;78.99;95431.94;5070992;28;20211;-78
2022/01/27 09:02:42;;;;;;;8.20;4.20;;;;;;;0.66;78.96;95417.50;5072315;28;20226;-77
2022/01/27 09:05:09;;;;;;;4.10;2.15;;;;;;;0.84;78.12;95431.59;5087621;28;20279;-77
2022/01/27 09:07:36;;;;;;;9.98;3.95;;;;;;;0.68;79.50;95425.28;5082798;28;20203;-79
2022/01/27 09:10:09;;;;;;;10.80;5.55;;;;;;;0.73;79.64;95432.50;5086264;28;20208;-79
2022/01/27 09:12:36;;;;;;;7.75;5.03;;;;;;;0.98;79.13;95436.31;5072443;28;20230;-79
2022/01/27 09:15:04;;;;;;;10.70;5.15;;;;;;;1.18;77.97;95435.78;5072958;28;20222;-79
2022/01/27 09:17:38;;;;;;;13.88;6.28;;;;;;;1.02;79.25;95436.63;5070373;28;20253;-78
2022/01/27 09:20:07;;;;;;;8.45;4.40;;;;;;;1.21;78.31;95439.81;5072497;28;20225;-79
2022/01/27 09:22:35;;;;;;;8.07;4.55;;;;;;;1.20;79.19;95439.00;5084534;28;20226;-80
2022/01/27 09:25:09;;;;;;;7.00;3.78;;;;;;;1.33;77.96;95430.63;5073883;28;20272;-79
2022/01/27 09:27:37;;;;;;;9.88;4.10;;;;;;;1.07;78.35;95431.38;5073018;28;20644;-81
2022/01/27 09:30:05;;;;;;;7.55;4.05;;;;;;;1.02;78.07;95434.78;5073116;28;20223;-83
2022/01/27 09:32:32;;;;;;;8.68;4.82;;;;;;;1.15;77.83;95425.59;5072077;28;20207;-78
2022/01/27 09:34:59;;;;;;;10.10;5.20;;;;;;;1.22;76.95;95420.88;5072935;28;20276;-83
2022/01/27 09:37:28;;;;;;;7.93;4.72;;;;;;;1.31;77.14;95418.56;5072291;28;20223;-85
2022/01/27 09:39:54;;;;;;;8.75;5.30;;;;;;;1.41;76.83;95408.81;5072326;28;20199;-82
2022/01/27 09:42:24;;;;;;;8.30;4.95;;;;;;;1.22;76.65;95410.22;5072032;28;20696;-83
2022/01/27 09:44:54;;;;;;;8.48;4.20;;;;;;;1.86;75.22;95420.19;5071887;28;20223;-79
2022/01/27 09:47:29;;;;;;;7.93;4.18;;;;;;;1.66;74.26;95405.59;5072843;28;20202;-80
2022/01/27 09:50:06;;;;;;;6.95;4.05;;;;;;;1.92;73.74;95398.59;5072357;28;20198;-83
2022/01/27 09:52:33;;;;;;;13.63;8.05;;;;;;;1.86;73.18;95399.63;5072077;28;20241;-82
2022/01/27 09:55:00;;;;;;;10.93;5.35;;;;;;;2.22;72.14;95383.88;5071926;28;20215;-82
2022/01/27 09:57:27;;;;;;;5.20;3.65;;;;;;;2.13;72.12;95388.91;5072173;28;20231;-80
2022/01/27 09:59:56;;;;;;;6.55;3.75;;;;;;;2.26;72.47;95390.34;5072036;28;20223;-79
2022/01/27 10:02:22;;;;;;;16.02;9.25;;;;;;;2.12;73.53;95397.97;5071435;28;20209;-78
2022/01/27 10:04:51;;;;;;;8.65;4.38;;;;;;;2.00;73.16;95405.38;5072027;28;20206;-76
2022/01/27 10:07:20;;;;;;;9.55;4.63;;;;;;;1.88;73.76;95397.53;5057932;28;20199;-78
2022/01/27 10:10:01;;;;;;;10.85;5.78;;;;;;;1.80;74.33;95387.28;5071117;28;20207;-77
2022/01/27 10:12:33;;;;;;;9.50;5.70;;;;;;;1.76;75.28;95394.22;5069499;28;20799;-78
2022/01/27 10:15:05;;;;;;;10.60;4.93;;;;;;;1.83;74.37;95394.78;5062670;28;20198;-78
2022/01/27 10:17:37;;;;;;;12.68;6.13;;;;;;;1.89;73.79;95395.66;5065437;28;20250;-77
2022/01/27 10:20:04;;;;;;;11.27;5.03;;;;;;;2.05;71.68;95398.19;5071119;28;20219;-77
2022/01/27 10:22:31;;;;;;;10.85;5.90;;;;;;;1.68;73.45;95390.13;5083463;28;20194;-80
2022/01/27 10:25:08;;;;;;;6.72;4.18;;;;;;;1.15;74.68;95388.25;5072995;28;20202;-80
2022/01/27 10:27:46;;;;;;;11.80;6.07;;;;;;;1.70;72.83;95389.88;5071614;28;20341;-81
2022/01/27 10:30:37;;;;;;;8.88;4.28;;;;;;;1.32;73.80;95391.63;5071366;28;20237;-80
2022/01/27 10:33:05;;;;;;;9.02;5.20;;;;;;;1.30;74.32;95375.06;5071606;28;20623;-80
2022/01/27 10:35:33;;;;;;;8.98;4.95;;;;;;;1.54;73.14;95390.78;5071624;28;20202;-82
2022/01/27 10:38:03;;;;;;;10.38;4.85;;;;;;;1.72;73.15;95382.41;5071062;28;20211;-79
2022/01/27 10:40:32;;;;;;;13.82;5.68;;;;;;;1.33;74.14;95385.25;5070766;28;20199;-79
2022/01/27 10:43:03;;;;;;;5.85;3.17;;;;;;;1.35;73.46;95385.00;5057580;28;20226;-82
2022/01/27 10:45:32;;;;;;;10.43;5.82;;;;;;;1.16;74.74;95379.19;5071049;28;20187;-81
2022/01/27 10:48:14;;;;;;;8.77;3.17;;;;;;;1.50;73.12;95376.34;5070593;28;20665;-79
2022/01/27 10:50:49;;;;;;;8.38;4.68;;;;;;;2.01;71.32;95364.22;5070762;28;20274;-78
2022/01/27 10:53:17;;;;;;;6.32;3.42;;;;;;;2.02;69.92;95361.31;5066110;28;20983;-79
2022/01/27 10:55:45;;;;;;;8.73;3.75;;;;;;;1.84;70.38;95359.03;5063189;28;20226;-77
2022/01/27 10:58:27;;;;;;;7.70;4.72;;;;;;;2.05;70.38;95366.13;5070067;28;20206;-77
2022/01/27 11:01:00;;;;;;;9.23;4.90;;;;;;;2.00;70.04;95363.44;5070338;28;20191;-77
2022/01/27 11:03:28;;;;;;;5.43;3.90;;;;;;;1.91;69.91;95358.81;5070804;28;20197;-81
2022/01/27 11:05:56;;;;;;;8.65;4.68;;;;;;;1.94;69.48;95353.75;5072146;28;20195;-80
2022/01/27 11:08:26;;;;;;;7.22;4.78;;;;;;;2.28;68.90;95348.13;5072281;28;20222;-80
2022/01/27 11:10:53;;;;;;;7.20;3.67;;;;;;;2.35;68.70;95346.00;5069629;28;20393;-77
2022/01/27 11:13:23;;;;;;;4.95;2.88;;;;;;;2.51;67.94;95345.03;5070416;28;20226;-80
2022/01/27 11:15:54;;;;;;;4.97;2.83;;;;;;;2.92;66.40;95342.56;5070811;28;20219;-80
2022/01/27 11:18:24;;;;;;;5.63;3.22;;;;;;;2.66;67.04;95337.09;5084179;28;20239;-80
2022/01/27 11:20:57;;;;;;;6.38;4.55;;;;;;;2.19;69.02;95337.09;5070526;28;20199;-79
2022/01/27 11:24:00;;;;;;;9.23;3.97;;;;;;;2.14;68.28;95337.88;5084091;28;20313;-78
2022/01/27 11:26:27;;;;;;;7.28;4.22;;;;;;;2.27;68.48;95341.97;5070671;28;20229;-81
2022/01/27 11:28:57;;;;;;;6.25;3.65;;;;;;;2.35;68.30;95329.97;5071114;28;20238;-78
2022/01/27 11:31:54;;;;;;;5.35;3.85;;;;;;;2.53;67.47;95329.56;5070940;28;20191;-78
2022/01/27 11:34:43;;;;;;;6.25;3.70;;;;;;;2.65;66.99;95324.78;5062020;28;20275;-78
2022/01/27 11:37:10;;;;;;;4.13;2.15;;;;;;;2.65;65.84;95295.38;5069028;28;20221;-78
2022/01/27 11:39:54;;;;;;;8.02;3.97;;;;;;;3.02;65.77;95315.81;5070177;28;20211;-77
2022/01/27 11:42:37;;;;;;;5.72;3.20;;;;;;;2.77;65.67;95309.31;5069634;28;20234;-78
2022/01/27 11:45:25;;;;;;;15.02;8.00;;;;;;;3.15;65.47;95310.78;5070078;28;20734;-76
2022/01/27 11:47:53;;;;;;;11.50;6.55;;;;;;;3.12;65.54;95318.56;5070265;28;20581;-78
2022/01/27 11:50:32;;;;;;;10.52;6.05;;;;;;;3.09;64.97;95314.53;5070132;28;20218;-77
2022/01/27 11:53:00;;;;;;;9.63;6.45;;;;;;;3.46;63.51;95314.34;5070268;28;20218;-78
2022/01/27 11:55:45;;;;;;;9.55;5.65;;;;;;;3.24;63.69;95313.78;5071791;28;20218;-78
2022/01/27 11:58:21;;;;;;;9.65;5.22;;;;;;;3.07;64.70;95313.19;5073287;28;20230;-78
2022/01/27 12:01:10;;;;;;;8.15;5.00;;;;;;;3.30;62.83;95314.56;5074261;28;20191;-77
2022/01/27 12:03:38;;;;;;;6.90;4.63;;;;;;;2.74;63.79;95315.19;5073943;28;20188;-76
2022/01/27 12:06:19;;;;;;;8.00;5.35;;;;;;;3.19;64.45;95321.78;5073640;28;20203;-77
2022/01/27 12:08:46;;;;;;;9.15;5.55;;;;;;;3.07;64.02;95315.84;5073592;28;20219;-78
2022/01/27 12:11:47;;;;;;;9.32;5.25;;;;;;;3.00;62.22;95312.63;5073507;28;20230;-78
2022/01/27 12:14:17;;;;;;;7.88;4.95;;;;;;;3.38;61.70;95317.53;5060967;28;20223;-75
2022/01/27 12:16:56;;;;;;;9.05;4.82;;;;;;;3.58;61.91;95304.16;5073549;28;20262;-78